Time;durP1;ratioP1;P1;durP2;ratioP2;P2;SDS_P1;SDS_P2;PMS_P1;PMS_P2;Temp;Humidity;BMP_temperature;BMP_pressure;BME280_temperature;BME280_humidity;BME280_pressure;Samples;Min_cycle;Max_cycle;Signal;HPM_P1;HPM_P2
2023/12/04 00:01:55;;;;;;;36.10;16.53;;;;;;;-0.81;100.00;101460.56;10398235;28;20041;-84
2023/12/04 00:06:56;;;;;;;35.63;16.83;;;;;;;-0.82;100.00;101448.06;10408154;28;20045;-84
2023/12/04 00:11:56;;;;;;;39.20;16.87;;;;;;;-0.79;100.00;101436.91;10424482;28;20059;-83
2023/12/04 00:16:57;;;;;;;36.93;17.57;;;;;;;-0.76;100.00;101443.84;10407152;28;20041;-84
2023/12/04 00:21:57;;;;;;;34.93;16.30;;;;;;;-0.87;100.00;101421.53;10424060;28;20048;-85
2023/12/04 00:26:58;;;;;;;38.60;17.63;;;;;;;-0.84;100.00;101406.84;10425489;28;20054;-84
2023/12/04 00:31:58;;;;;;;38.87;16.83;;;;;;;-0.87;100.00;101402.59;10392980;28;20037;-84
2023/12/04 00:36:59;;;;;;;36.50;18.17;;;;;;;-0.85;100.00;101405.13;10407535;28;20037;-84
2023/12/04 00:41:59;;;;;;;37.83;17.93;;;;;;;-0.86;100.00;101387.22;10407451;28;20036;-84
2023/12/04 00:46:59;;;;;;;42.60;18.30;;;;;;;-0.82;100.00;101386.72;10406391;28;20033;-84
2023/12/04 00:52:00;;;;;;;36.90;18.67;;;;;;;-0.91;100.00;101378.75;10407336;28;20045;-83
2023/12/04 00:57:00;;;;;;;40.90;18.97;;;;;;;-0.85;100.00;101378.09;10391527;28;20033;-83
2023/12/04 01:02:01;;;;;;;36.50;17.70;;;;;;;-0.87;100.00;101364.75;10407589;28;20043;-85
2023/12/04 01:07:01;;;;;;;42.27;18.03;;;;;;;-0.86;100.00;101361.03;10407621;28;20049;-84
2023/12/04 01:12:02;;;;;;;41.97;19.27;;;;;;;-0.84;100.00;101358.16;10399665;28;20033;-85
2023/12/04 01:17:03;;;;;;;41.43;18.57;;;;;;;-0.81;100.00;101376.75;10407215;28;20044;-85
2023/12/04 01:22:03;;;;;;;39.83;18.27;;;;;;;-0.83;100.00;101354.44;10381361;28;20385;-85
2023/12/04 01:27:04;;;;;;;46.70;20.27;;;;;;;-0.83;100.00;101349.03;10422601;28;20045;-86
2023/12/04 01:32:05;;;;;;;45.50;17.90;;;;;;;-0.80;100.00;101353.28;10412690;28;20041;-85
2023/12/04 01:37:05;;;;;;;43.67;19.27;;;;;;;-0.87;100.00;101336.88;10406102;28;20037;-86
2023/12/04 01:42:06;;;;;;;44.37;19.30;;;;;;;-0.83;100.00;101343.63;10405653;28;20045;-83
2023/12/04 01:47:07;;;;;;;41.27;17.83;;;;;;;-0.94;100.00;101325.03;10405652;28;20199;-83
2023/12/04 01:52:07;;;;;;;42.97;19.33;;;;;;;-0.83;100.00;101335.50;10406542;28;20049;-79
2023/12/04 01:57:08;;;;;;;49.77;19.57;;;;;;;-0.84;100.00;101331.13;10406800;28;20049;-81
2023/12/04 02:02:09;;;;;;;42.10;17.70;;;;;;;-0.83;100.00;101332.81;10413724;28;20056;-82
2023/12/04 02:07:09;;;;;;;41.33;18.37;;;;;;;-0.80;100.00;101323.53;10405040;28;20108;-83
2023/12/04 02:12:09;;;;;;;37.90;17.70;;;;;;;-0.80;100.00;101320.84;10456464;28;20037;-82
2023/12/04 02:17:10;;;;;;;43.83;19.60;;;;;;;-0.82;100.00;101318.28;10438450;28;20033;-81
2023/12/04 02:22:10;;;;;;;50.77;20.33;;;;;;;-0.83;100.00;101316.59;10388398;28;20041;-82
2023/12/04 02:27:25;;;;;;;44.90;20.13;;;;;;;-0.80;100.00;101312.72;10416523;28;20063;-83
2023/12/04 02:32:29;;;;;;;47.43;20.97;;;;;;;-0.80;100.00;101291.94;10380545;28;20124;-83
2023/12/04 02:37:30;;;;;;;47.93;19.33;;;;;;;-0.80;100.00;101296.50;10399029;28;20101;-86
2023/12/04 02:42:30;;;;;;;45.70;18.47;;;;;;;-0.84;100.00;101274.38;10412450;28;20036;-81
2023/12/04 02:47:31;;;;;;;46.67;19.60;;;;;;;-0.85;100.00;101259.16;10396367;28;20041;-80
2023/12/04 02:52:31;;;;;;;39.85;18.80;;;;;;;-0.79;100.00;101274.69;10418094;28;20037;-81
2023/12/04 02:57:32;;;;;;;42.83;19.70;;;;;;;-0.82;100.00;101265.06;10411941;28;20489;-83
2023/12/04 03:02:32;;;;;;;44.40;19.03;;;;;;;-0.78;100.00;101265.59;10405400;28;20448;-81
2023/12/04 03:07:33;;;;;;;49.30;19.27;;;;;;;-0.78;100.00;101253.94;10427871;28;20085;-81
2023/12/04 03:12:33;;;;;;;48.40;20.70;;;;;;;-0.79;100.00;101242.25;10428240;28;20068;-79
2023/12/04 03:17:34;;;;;;;55.35;23.58;;;;;;;-0.79;100.00;101226.03;10411274;28;20033;-80
2023/12/04 03:22:36;;;;;;;49.03;20.23;;;;;;;-1.09;100.00;101176.25;10441195;28;20040;-80
2023/12/04 03:27:36;;;;;;;53.43;20.63;;;;;;;-0.78;100.00;101222.31;10438032;28;20056;-81
2023/12/04 03:32:37;;;;;;;50.77;20.13;;;;;;;-0.74;100.00;101212.03;10447923;28;20033;-81
2023/12/04 03:37:38;;;;;;;53.70;21.77;;;;;;;-0.84;100.00;101199.50;10407588;28;20108;-83
2023/12/04 03:42:39;;;;;;;55.00;21.27;;;;;;;-0.73;100.00;101206.41;10424876;28;20112;-81
2023/12/04 03:47:39;;;;;;;53.63;21.63;;;;;;;-0.70;100.00;101202.56;10426224;28;20108;-84
2023/12/04 03:52:41;;;;;;;54.37;24.20;;;;;;;-0.70;100.00;101197.97;10411876;28;20036;-84
2023/12/04 03:57:41;;;;;;;54.87;22.00;;;;;;;-0.69;100.00;101182.59;10425930;28;20047;-83
2023/12/04 04:02:43;;;;;;;52.43;20.40;;;;;;;-0.66;100.00;101177.69;10442142;28;20076;-84
2023/12/04 04:07:43;;;;;;;63.27;23.50;;;;;;;-0.68;100.00;101174.31;10408951;28;20051;-81
2023/12/04 04:12:44;;;;;;;59.93;22.40;;;;;;;-0.65;100.00;101173.94;10434165;28;20063;-83
2023/12/04 04:17:44;;;;;;;50.40;20.40;;;;;;;-0.63;100.00;101171.91;10425312;28;20041;-84
2023/12/04 04:22:46;;;;;;;56.13;20.23;;;;;;;-0.61;100.00;101169.88;10434055;28;20064;-83
2023/12/04 04:27:47;;;;;;;49.77;22.37;;;;;;;-0.57;100.00;101183.06;10459260;28;20096;-83
2023/12/04 04:32:47;;;;;;;55.80;23.43;;;;;;;-0.59;100.00;101149.94;10424656;28;20039;-80
2023/12/04 04:37:48;;;;;;;51.40;20.77;;;;;;;-0.59;100.00;101160.78;10441083;28;20037;-82
2023/12/04 04:42:48;;;;;;;52.20;21.97;;;;;;;-0.60;100.00;101162.59;10408328;28;20037;-82
2023/12/04 04:47:49;;;;;;;54.37;20.77;;;;;;;-0.60;100.00;101154.50;10431403;28;20087;-81
2023/12/04 04:52:49;;;;;;;51.83;20.83;;;;;;;-0.59;100.00;101150.78;10459461;28;20048;-81
2023/12/04 04:57:49;;;;;;;51.50;20.07;;;;;;;-0.61;100.00;101136.59;10425469;28;20029;-81
2023/12/04 05:02:50;;;;;;;53.57;22.57;;;;;;;-0.59;100.00;101144.53;10416439;28;20053;-84
2023/12/04 05:07:50;;;;;;;58.97;22.73;;;;;;;-0.62;100.00;101141.16;10421567;28;20051;-81
2023/12/04 05:12:51;;;;;;;49.70;20.83;;;;;;;-0.59;100.00;101137.25;10407373;28;20044;-83
2023/12/04 05:17:51;;;;;;;51.97;20.07;;;;;;;-0.53;100.00;101141.97;10380881;28;20037;-83
2023/12/04 05:22:52;;;;;;;46.93;18.77;;;;;;;-0.52;100.00;101134.69;10405360;28;20037;-87
2023/12/04 05:27:52;;;;;;;51.10;22.17;;;;;;;-0.54;100.00;101132.16;10406677;28;20425;-84
2023/12/04 05:32:54;;;;;;;55.20;20.30;;;;;;;-0.58;100.00;101124.59;10413169;28;20052;-82
2023/12/04 05:37:54;;;;;;;49.17;22.07;;;;;;;-0.70;100.00;101102.50;10405723;28;20100;-83
2023/12/04 05:42:55;;;;;;;55.23;21.53;;;;;;;-0.81;100.00;101092.88;10406758;28;20056;-79
2023/12/04 05:47:55;;;;;;;60.93;21.83;;;;;;;-0.68;100.00;101105.88;10395892;28;20072;-84
2023/12/04 05:52:56;;;;;;;49.60;19.53;;;;;;;-0.65;100.00;101119.88;10422821;28;20053;-82
2023/12/04 05:57:56;;;;;;;55.83;21.20;;;;;;;-0.71;100.00;101093.53;10423730;28;20367;-82
2023/12/04 06:02:57;;;;;;;45.90;20.00;;;;;;;-0.57;100.00;101099.25;10393220;28;20037;-82
2023/12/04 06:07:58;;;;;;;50.50;20.27;;;;;;;-0.55;100.00;101102.63;10404557;28;20041;-83
2023/12/04 06:12:58;;;;;;;48.57;20.00;;;;;;;-0.53;100.00;101096.00;10424474;28;20045;-81
2023/12/04 06:17:58;;;;;;;56.37;23.00;;;;;;;-0.61;100.00;101072.53;10457379;28;20084;-82
2023/12/04 06:22:59;;;;;;;51.93;19.20;;;;;;;-0.54;100.00;101072.66;10430211;28;20041;-81
2023/12/04 06:28:00;;;;;;;47.10;19.10;;;;;;;-0.50;100.00;101076.69;10425573;28;20112;-81
2023/12/04 06:33:01;;;;;;;49.97;20.17;;;;;;;-0.57;100.00;101067.63;10436362;28;20049;-76
2023/12/04 06:38:05;;;;;;;49.53;21.43;;;;;;;-0.48;100.00;101080.06;10419224;28;22694;-83
2023/12/04 06:43:07;;;;;;;42.33;19.70;;;;;;;-0.53;100.00;101052.72;10394153;28;20045;-83
2023/12/04 06:48:08;;;;;;;40.80;17.80;;;;;;;-0.42;100.00;101059.59;10428730;28;20041;-84
2023/12/04 06:53:09;;;;;;;55.40;21.20;;;;;;;-0.40;100.00;101052.16;10446219;28;20056;-82
2023/12/04 06:58:09;;;;;;;46.17;19.07;;;;;;;-0.38;100.00;101050.09;10429102;28;20056;-81
2023/12/04 07:03:09;;;;;;;45.17;19.63;;;;;;;-0.44;100.00;101037.28;10407710;28;20041;-82
2023/12/04 07:08:10;;;;;;;42.03;18.80;;;;;;;-0.38;100.00;101035.75;10411725;28;20041;-85
2023/12/04 07:13:12;;;;;;;48.78;19.10;;;;;;;-0.37;100.00;101049.09;10449330;28;20072;-83
2023/12/04 07:18:13;;;;;;;45.72;20.02;;;;;;;-0.38;100.00;101039.28;10428303;28;20579;-81
2023/12/04 07:23:13;;;;;;;39.93;19.13;;;;;;;-0.42;100.00;101027.13;10434748;28;20045;-82
2023/12/04 07:28:14;;;;;;;41.92;17.52;;;;;;;-0.43;100.00;101025.47;10437915;28;20041;-81
2023/12/04 07:33:14;;;;;;;38.27;18.07;;;;;;;-0.54;100.00;101006.94;10410525;28;20044;-81
2023/12/04 07:38:15;;;;;;;39.23;17.13;;;;;;;-0.48;100.00;101019.75;10410940;28;20060;-75
2023/12/04 07:43:15;;;;;;;38.63;18.07;;;;;;;-0.50;100.00;101002.84;10411383;28;20045;-80
2023/12/04 07:48:16;;;;;;;36.33;17.03;;;;;;;-0.54;100.00;100996.09;10435851;28;20041;-83
2023/12/04 07:53:17;;;;;;;35.30;16.00;;;;;;;-0.52;100.00;101004.88;10411339;28;20075;-81
2023/12/04 07:58:18;;;;;;;39.07;15.20;;;;;;;-0.48;100.00;100995.41;10409500;28;20049;-79
2023/12/04 08:03:18;;;;;;;35.30;16.00;;;;;;;-0.46;100.00;100985.25;10439694;28;20045;-82
2023/12/04 08:08:18;;;;;;;34.25;15.40;;;;;;;-0.84;100.00;100948.13;10424158;28;20115;-83
2023/12/04 08:13:19;;;;;;;29.23;13.70;;;;;;;-0.38;100.00;100996.00;10423385;28;20407;-82
2023/12/04 08:18:19;;;;;;;25.27;13.10;;;;;;;-0.34;100.00;101002.75;10446708;28;20047;-82
2023/12/04 08:23:20;;;;;;;29.10;13.00;;;;;;;-0.28;100.00;100995.78;10410007;28;20036;-81
2023/12/04 08:28:20;;;;;;;27.17;12.13;;;;;;;-0.34;100.00;100975.69;10424564;28;20048;-82
2023/12/04 08:33:21;;;;;;;27.83;13.43;;;;;;;-0.25;100.00;100974.63;10430004;28;20036;-85
2023/12/04 08:38:21;;;;;;;26.27;12.93;;;;;;;-0.18;100.00;100979.31;10427787;28;20041;-82
2023/12/04 08:43:23;;;;;;;23.53;11.60;;;;;;;-0.16;100.00;100975.38;10482907;28;20040;-82
2023/12/04 08:48:24;;;;;;;25.20;11.67;;;;;;;-0.17;100.00;100965.56;10392243;28;20048;-83
2023/12/04 08:53:24;;;;;;;26.23;12.90;;;;;;;-0.13;100.00;100966.91;10459773;28;20063;-81
2023/12/04 08:58:25;;;;;;;20.30;11.07;;;;;;;-0.16;100.00;100958.31;10410015;28;20067;-82
2023/12/04 09:03:25;;;;;;;22.70;11.77;;;;;;;-0.10;100.00;100965.72;10404268;28;20082;-82
2023/12/04 09:08:27;;;;;;;24.83;13.00;;;;;;;-0.13;100.00;100966.06;10404364;28;20037;-82
2023/12/04 09:13:29;;;;;;;25.20;12.30;;;;;;;-0.06;100.00;100975.16;10405563;28;20040;-81
2023/12/04 09:18:29;;;;;;;20.67;11.57;;;;;;;-0.10;100.00;100960.31;10406944;28;20111;-80
2023/12/04 09:23:30;;;;;;;25.50;11.93;;;;;;;-0.01;100.00;100964.59;10406453;28;20045;-81
2023/12/04 09:28:31;;;;;;;22.90;13.40;;;;;;;0.04;100.00;100959.47;10450622;28;20037;-81
2023/12/04 09:33:31;;;;;;;23.43;11.17;;;;;;;0.04;100.00;100948.63;10389508;28;20124;-82
2023/12/04 09:38:31;;;;;;;20.00;11.20;;;;;;;0.15;100.00;100963.63;10422686;28;20061;-82
2023/12/04 09:43:32;;;;;;;22.60;11.40;;;;;;;0.21;100.00;100962.88;10421064;28;20048;-82
2023/12/04 09:48:33;;;;;;;25.27;11.70;;;;;;;0.21;100.00;100946.66;10403984;28;20097;-82
2023/12/04 09:53:33;;;;;;;21.77;11.50;;;;;;;0.37;100.00;100945.63;10415342;28;20033;-89
2023/12/04 09:58:34;;;;;;;20.73;11.00;;;;;;;0.36;100.00;100938.53;10430585;28;20040;-87
2023/12/04 10:03:35;;;;;;;34.70;11.45;;;;;;;0.44;100.00;100941.16;10426437;28;20040;-85
2023/12/04 10:08:35;;;;;;;18.07;10.03;;;;;;;0.45;100.00;100934.69;10412844;28;20100;-84
2023/12/04 10:13:36;;;;;;;20.53;11.07;;;;;;;0.47;100.00;100913.69;10413099;28;20037;-80
2023/12/04 10:18:36;;;;;;;20.75;11.18;;;;;;;0.64;100.00;100927.03;10402641;28;20045;-76
2023/12/04 10:23:36;;;;;;;22.50;11.37;;;;;;;0.71;100.00;100923.38;10438274;28;20045;-80
2023/12/04 10:28:37;;;;;;;18.30;8.87;;;;;;;0.77;100.00;100913.69;10418264;28;20044;-80
2023/12/04 10:33:37;;;;;;;17.77;9.03;;;;;;;0.82;100.00;100897.66;10365329;28;20091;-83
2023/12/04 10:38:38;;;;;;;15.83;9.07;;;;;;;0.90;100.00;100892.13;10391907;28;20053;-77
2023/12/04 10:43:46;;;;;;;15.97;8.80;;;;;;;0.94;100.00;100896.16;10417396;28;20041;-78
2023/12/04 10:48:47;;;;;;;13.97;8.03;;;;;;;0.89;100.00;100882.34;10403653;28;20037;-77
2023/12/04 10:53:48;;;;;;;13.57;7.93;;;;;;;0.89;100.00;100878.78;10404843;28;20190;-77
2023/12/04 10:58:50;;;;;;;15.57;8.17;;;;;;;0.87;100.00;100881.69;10424342;28;20036;-76
2023/12/04 11:03:53;;;;;;;13.50;8.23;;;;;;;0.78;100.00;100844.88;10390899;28;20042;-77
2023/12/04 11:08:53;;;;;;;15.70;7.77;;;;;;;0.90;100.00;100865.03;10398012;28;20061;-77
2023/12/04 11:13:55;;;;;;;15.90;7.77;;;;;;;0.95;100.00;100851.75;10405245;28;20041;-77
2023/12/04 11:19:18;;;;;;;12.17;7.43;;;;;;;1.05;100.00;100846.00;10399579;28;20049;-76
2023/12/04 11:24:18;;;;;;;16.83;8.10;;;;;;;1.13;100.00;100842.34;10413036;28;20050;-76
2023/12/04 11:29:19;;;;;;;14.87;7.77;;;;;;;1.17;100.00;100827.38;10407865;28;20067;-77
2023/12/04 11:34:19;;;;;;;16.00;7.87;;;;;;;1.14;100.00;100815.03;10396175;28;20108;-77
2023/12/04 11:39:20;;;;;;;13.60;8.73;;;;;;;1.24;100.00;100806.59;10398538;28;20041;-78
2023/12/04 11:44:20;;;;;;;17.60;9.07;;;;;;;0.89;100.00;100733.28;10393443;28;20030;-77
2023/12/04 11:49:28;;;;;;;15.33;8.23;;;;;;;1.31;100.00;100796.63;10403166;28;20447;-78
2023/12/04 11:54:30;;;;;;;14.20;7.90;;;;;;;1.29;100.00;100798.69;10389927;28;20037;-77
2023/12/04 11:59:37;;;;;;;12.27;6.88;;;;;;;1.19;100.00;100776.47;10416236;28;20052;-78
2023/12/04 12:04:38;;;;;;;15.27;7.95;;;;;;;1.27;100.00;100783.66;10384872;28;20042;-78
2023/12/04 12:09:38;;;;;;;15.18;8.38;;;;;;;1.28;100.00;100769.91;10398850;28;20037;-77
2023/12/04 12:14:38;;;;;;;16.05;8.60;;;;;;;1.33;100.00;100766.59;10381112;28;20034;-76
2023/12/04 12:19:39;;;;;;;13.30;7.83;;;;;;;1.33;100.00;100753.03;10376075;28;20091;-77
2023/12/04 12:24:39;;;;;;;15.40;9.07;;;;;;;1.31;100.00;100755.94;10400773;28;20052;-77
2023/12/04 12:29:40;;;;;;;13.00;7.53;;;;;;;1.37;100.00;100757.88;10365873;28;20037;-78
2023/12/04 12:34:40;;;;;;;13.47;8.17;;;;;;;1.38;100.00;100754.09;10366195;28;20465;-78
2023/12/04 12:39:41;;;;;;;18.30;8.52;;;;;;;1.36;100.00;100749.91;10381029;28;20041;-78
2023/12/04 12:44:42;;;;;;;14.52;7.38;;;;;;;1.45;100.00;100756.03;10397672;28;20041;-77
2023/12/04 12:49:43;;;;;;;17.27;8.05;;;;;;;1.45;100.00;100739.75;10415308;28;20112;-78
2023/12/04 12:54:44;;;;;;;15.30;7.90;;;;;;;1.50;100.00;100740.00;10374032;28;20041;-79
2023/12/04 12:59:44;;;;;;;13.18;8.35;;;;;;;1.56;100.00;100736.50;10394118;28;20039;-79
2023/12/04 13:04:45;;;;;;;14.03;8.73;;;;;;;1.47;100.00;100718.69;10383294;28;20040;-79
2023/12/04 13:09:46;;;;;;;13.67;7.67;;;;;;;1.50;100.00;100721.03;10382949;28;20056;-78
2023/12/04 13:14:47;;;;;;;12.88;7.53;;;;;;;1.35;100.00;100713.81;10383933;28;20049;-77
2023/12/04 13:19:47;;;;;;;13.03;7.43;;;;;;;1.19;100.00;100695.13;10398855;28;20037;-77
2023/12/04 13:24:48;;;;;;;14.07;8.00;;;;;;;1.21;100.00;100706.63;10379928;28;20109;-77
2023/12/04 13:29:50;;;;;;;14.53;8.77;;;;;;;1.11;100.00;100684.44;10377899;28;20064;-78
2023/12/04 13:34:50;;;;;;;11.17;7.20;;;;;;;1.04;100.00;100678.13;10395916;28;20037;-78
2023/12/04 13:39:57;;;;;;;11.63;7.63;;;;;;;0.99;100.00;100668.72;10417121;28;20065;-74
2023/12/04 13:44:58;;;;;;;14.97;7.70;;;;;;;1.04;100.00;100676.25;10368471;28;20033;-78
2023/12/04 13:49:58;;;;;;;12.95;8.35;;;;;;;1.00;100.00;100669.53;10400485;28;20046;-77
2023/12/04 13:54:59;;;;;;;15.43;8.60;;;;;;;0.95;100.00;100662.00;10397917;28;20060;-78
2023/12/04 13:59:59;;;;;;;14.77;8.43;;;;;;;0.84;100.00;100643.56;10414086;28;20041;-77
2023/12/04 14:05:00;;;;;;;13.27;8.80;;;;;;;0.78;100.00;100628.09;10388381;28;20061;-78
2023/12/04 14:10:00;;;;;;;17.13;8.23;;;;;;;0.82;100.00;100625.81;10379665;28;20489;-76
2023/12/04 14:15:01;;;;;;;15.73;8.53;;;;;;;0.76;100.00;100620.13;10421044;28;20532;-77
2023/12/04 14:20:07;;;;;;;15.77;8.40;;;;;;;0.62;100.00;100590.44;10400357;28;20041;-77
2023/12/04 14:25:09;;;;;;;14.52;8.57;;;;;;;0.53;100.00;100579.72;10393732;28;20045;-76
2023/12/04 14:30:11;;;;;;;17.00;9.67;;;;;;;0.55;100.00;100602.03;10385738;28;20041;-77
2023/12/04 14:35:13;;;;;;;19.57;9.30;;;;;;;0.37;100.00;100566.47;10410509;28;20055;-78
2023/12/04 14:40:14;;;;;;;17.73;9.30;;;;;;;0.34;100.00;100583.13;10423257;28;20045;-77
2023/12/04 14:45:18;;;;;;;14.27;8.40;;;;;;;0.24;100.00;100575.31;10388793;28;20057;-77
2023/12/04 14:50:18;;;;;;;15.50;8.97;;;;;;;0.29;100.00;100590.97;10347803;28;20083;-78
2023/12/04 15:16:47;;;;;;;16.13;9.23;;;;;;;-0.19;100.00;100601.50;10437569;28;20087;-77
2023/12/04 15:21:47;;;;;;;15.90;8.07;;;;;;;-0.30;100.00;100586.63;10416498;28;20048;-78
2023/12/04 15:26:48;;;;;;;16.50;9.07;;;;;;;-0.27;100.00;100592.50;10393943;28;20041;-77
2023/12/04 15:31:48;;;;;;;17.30;8.50;;;;;;;-0.34;100.00;100580.75;10424373;28;20057;-77
2023/12/04 15:36:49;;;;;;;16.27;9.07;;;;;;;-0.32;100.00;100589.50;10433546;28;20032;-76
2023/12/04 15:41:49;;;;;;;15.10;9.47;;;;;;;-0.34;100.00;100585.31;10428431;28;20037;-76
2023/12/04 15:46:50;;;;;;;19.07;9.80;;;;;;;-0.38;100.00;100587.56;10431859;28;20033;-76
2023/12/04 15:51:50;;;;;;;16.43;9.73;;;;;;;-0.75;100.00;100524.50;10480425;28;20391;-77
2023/12/04 15:56:51;;;;;;;20.93;9.83;;;;;;;-0.45;100.00;100563.16;10408392;28;20047;-76
2023/12/04 16:01:51;;;;;;;15.17;8.87;;;;;;;-0.46;100.00;100555.22;10421011;28;20060;-76
2023/12/04 16:06:51;;;;;;;20.90;8.63;;;;;;;-0.56;100.00;100527.63;10414402;28;20033;-76
2023/12/04 16:11:52;;;;;;;16.07;8.30;;;;;;;-0.41;100.00;100550.09;10449810;28;20040;-77
2023/12/04 16:16:53;;;;;;;17.60;9.97;;;;;;;-0.42;100.00;100540.28;10410989;28;20052;-76
2023/12/04 16:21:53;;;;;;;14.17;8.60;;;;;;;-0.50;100.00;100537.69;10384650;28;20041;-75
2023/12/04 16:26:56;;;;;;;19.90;9.07;;;;;;;-0.48;100.00;100547.28;10408800;28;20052;-73
2023/12/04 16:31:56;;;;;;;16.73;9.60;;;;;;;-0.49;100.00;100547.50;10419705;28;20400;-74
2023/12/04 16:36:57;;;;;;;16.27;9.13;;;;;;;-0.46;100.00;100556.03;10440367;28;20063;-73
2023/12/04 16:41:57;;;;;;;16.47;9.23;;;;;;;-0.49;100.00;100542.91;10459870;28;20037;-74
2023/12/04 16:46:58;;;;;;;15.07;8.43;;;;;;;-0.49;100.00;100544.78;10429912;28;20419;-74
2023/12/04 16:51:58;;;;;;;19.07;9.47;;;;;;;-0.50;100.00;100543.94;10439927;28;20037;-73
2023/12/04 16:56:58;;;;;;;15.67;9.30;;;;;;;-0.47;100.00;100537.31;10418434;28;20037;-76
2023/12/04 17:01:59;;;;;;;15.83;9.20;;;;;;;-0.46;100.00;100528.16;10457094;28;20048;-74
2023/12/04 17:06:59;;;;;;;14.70;8.53;;;;;;;-0.45;100.00;100529.84;10413009;28;20045;-74
2023/12/04 17:12:00;;;;;;;15.30;9.33;;;;;;;-0.42;100.00;100518.66;10435567;28;20036;-74
2023/12/04 17:17:00;;;;;;;17.80;9.43;;;;;;;-0.43;100.00;100523.22;10429674;28;20032;-74
2023/12/04 17:22:01;;;;;;;15.00;7.67;;;;;;;-0.43;100.00;100523.22;10424039;28;20481;-74
2023/12/04 17:27:01;;;;;;;15.17;8.13;;;;;;;-0.41;100.00;100514.94;10405072;28;20067;-75
2023/12/04 17:32:02;;;;;;;14.10;7.83;;;;;;;-0.50;100.00;100502.53;10431062;28;20044;-73
2023/12/04 17:37:02;;;;;;;20.27;9.53;;;;;;;-0.53;100.00;100506.47;10418318;28;20044;-75
2023/12/04 17:42:04;;;;;;;13.60;7.67;;;;;;;-0.54;100.00;100509.34;10429819;28;20041;-76
2023/12/04 17:47:04;;;;;;;14.00;7.47;;;;;;;-0.59;100.00;100506.41;10445694;28;20063;-77
2023/12/04 17:52:05;;;;;;;15.20;8.50;;;;;;;-0.66;100.00;100496.34;10438886;28;20040;-77
2023/12/04 17:57:06;;;;;;;13.50;7.60;;;;;;;-0.64;100.00;100517.75;10420426;28;20061;-75
2023/12/04 18:02:09;;;;;;;14.33;7.70;;;;;;;-0.73;100.00;100506.22;10423238;28;20075;-75
2023/12/04 18:07:09;;;;;;;14.30;8.03;;;;;;;-0.72;100.00;100507.09;10427250;28;20041;-75
2023/12/04 18:12:10;;;;;;;10.90;5.87;;;;;;;-0.64;100.00;100499.69;10464127;28;20528;-75
2023/12/04 18:17:10;;;;;;;14.70;8.47;;;;;;;-0.55;100.00;100488.75;10402004;28;20045;-73
2023/12/04 18:22:10;;;;;;;13.95;7.60;;;;;;;-0.76;100.00;100441.75;10418057;28;20052;-74
2023/12/04 18:27:12;;;;;;;14.93;8.10;;;;;;;-0.36;100.00;100490.84;10407056;28;20041;-74
2023/12/04 18:32:12;;;;;;;16.95;8.15;;;;;;;-0.28;100.00;100487.19;10411680;28;20045;-73
2023/12/04 18:37:21;;;;;;;15.32;8.38;;;;;;;-0.21;100.00;100488.06;10407851;28;20497;-73
2023/12/04 18:42:22;;;;;;;13.10;7.87;;;;;;;-0.17;100.00;100472.28;10428731;28;20135;-73
2023/12/04 18:47:23;;;;;;;14.10;7.77;;;;;;;-0.15;100.00;100475.63;10393514;28;20448;-73
2023/12/04 18:52:23;;;;;;;12.50;7.77;;;;;;;-0.12;100.00;100467.16;10409995;28;20041;-73
2023/12/04 18:57:24;;;;;;;13.17;8.00;;;;;;;-0.13;100.00;100457.34;10429616;28;20071;-74
2023/12/04 19:02:25;;;;;;;15.03;7.43;;;;;;;-0.06;100.00;100455.53;10411896;28;20045;-74
2023/12/04 19:07:25;;;;;;;11.10;6.63;;;;;;;0.00;100.00;100452.06;10411507;28;20048;-74
2023/12/04 19:12:26;;;;;;;15.90;7.93;;;;;;;-0.09;100.00;100442.38;10414284;28;20400;-74
2023/12/04 19:17:31;;;;;;;13.80;7.83;;;;;;;0.04;100.00;100457.91;10428472;28;20041;-74
2023/12/04 19:22:32;;;;;;;14.13;7.77;;;;;;;0.05;100.00;100463.13;10434809;28;20037;-74
2023/12/04 19:27:32;;;;;;;12.37;7.10;;;;;;;0.07;100.00;100455.66;10411667;28;20048;-74
2023/12/04 19:32:33;;;;;;;13.25;7.32;;;;;;;0.06;100.00;100451.25;10410072;28;20041;-73
2023/12/04 19:37:34;;;;;;;12.30;7.60;;;;;;;-0.45;100.00;100389.22;10442797;28;20033;-73
2023/12/04 19:42:34;;;;;;;11.27;6.60;;;;;;;-0.20;100.00;100430.22;10409853;28;20044;-73
2023/12/04 19:47:35;;;;;;;15.17;7.93;;;;;;;-0.27;100.00;100432.03;10425737;28;20068;-76
2023/12/04 19:52:35;;;;;;;15.37;8.17;;;;;;;-0.33;100.00;100435.50;10442755;28;20040;-75
2023/12/04 19:57:36;;;;;;;16.93;8.70;;;;;;;-0.37;100.00;100429.66;10410669;28;20045;-75
2023/12/04 20:02:36;;;;;;;13.47;8.47;;;;;;;-0.50;100.00;100397.06;10409433;28;20037;-76
2023/12/04 20:07:37;;;;;;;17.63;8.30;;;;;;;-0.40;100.00;100424.63;10409438;28;20041;-75
2023/12/04 20:12:37;;;;;;;14.93;7.93;;;;;;;-0.45;100.00;100421.69;10425220;28;20420;-76
2023/12/04 20:17:39;;;;;;;18.60;9.03;;;;;;;-0.47;100.00;100423.75;10423533;28;20440;-76
2023/12/04 20:22:40;;;;;;;18.92;9.00;;;;;;;-0.50;100.00;100424.13;10410575;28;20543;-76
2023/12/04 20:27:40;;;;;;;14.20;8.60;;;;;;;-0.50;100.00;100413.28;10425644;28;20055;-76
2023/12/04 20:32:41;;;;;;;17.07;7.93;;;;;;;-0.52;100.00;100397.25;10428063;28;20036;-76
2023/12/04 20:37:41;;;;;;;17.23;8.53;;;;;;;-0.54;100.00;100409.31;10408086;28;20052;-75
2023/12/04 20:42:42;;;;;;;17.63;8.97;;;;;;;-0.56;100.00;100414.91;10423163;28;20040;-75
2023/12/04 20:47:43;;;;;;;13.57;7.43;;;;;;;-0.68;100.00;100394.84;10423697;28;20040;-76
2023/12/04 20:52:43;;;;;;;15.80;8.87;;;;;;;-0.61;100.00;100395.72;10408413;28;20581;-73
2023/12/04 20:57:44;;;;;;;14.43;7.87;;;;;;;-0.72;100.00;100380.84;10458851;28;20045;-74
2023/12/04 21:02:45;;;;;;;16.40;9.03;;;;;;;-0.65;100.00;100395.28;10404263;28;20124;-74
2023/12/04 21:07:45;;;;;;;15.30;8.40;;;;;;;-0.60;100.00;100397.38;10423217;28;20037;-75
2023/12/04 21:12:46;;;;;;;13.17;7.53;;;;;;;-0.58;100.00;100397.19;10422825;28;20033;-74
2023/12/04 21:17:46;;;;;;;16.23;8.23;;;;;;;-0.57;100.00;100385.38;10406369;28;20033;-74
2023/12/04 21:22:47;;;;;;;14.30;7.67;;;;;;;-0.45;100.00;100394.63;10406549;28;20044;-73
2023/12/04 21:27:48;;;;;;;12.13;7.40;;;;;;;-0.37;100.00;100397.22;10409747;28;20075;-74
2023/12/04 21:32:49;;;;;;;14.97;7.70;;;;;;;-0.30;100.00;100398.09;10405951;28;20041;-74
2023/12/04 21:37:49;;;;;;;15.50;9.03;;;;;;;-0.26;100.00;100379.59;10457100;28;20316;-75
2023/12/04 21:42:49;;;;;;;13.87;7.73;;;;;;;-0.23;100.00;100377.34;10425250;28;20037;-76
2023/12/04 21:47:50;;;;;;;12.60;7.60;;;;;;;-0.18;100.00;100371.34;10435631;28;20037;-76
2023/12/04 21:52:50;;;;;;;14.47;7.60;;;;;;;-0.17;100.00;100375.72;10420443;28;20044;-76
2023/12/04 21:57:51;;;;;;;16.10;9.60;;;;;;;-0.23;100.00;100366.53;10452577;28;20037;-75
2023/12/04 22:02:51;;;;;;;14.13;7.47;;;;;;;-0.19;100.00;100366.97;10434275;28;20041;-75
2023/12/04 22:07:52;;;;;;;15.80;8.97;;;;;;;-0.21;100.00;100364.47;10435390;28;20107;-75
2023/12/04 22:12:53;;;;;;;17.23;9.77;;;;;;;-0.28;100.00;100347.34;10419366;28;20048;-75
2023/12/04 22:17:54;;;;;;;16.40;9.03;;;;;;;-0.33;100.00;100332.72;10435001;28;20060;-75
2023/12/04 22:22:55;;;;;;;17.13;9.83;;;;;;;-0.30;100.00;100344.00;10419567;28;20057;-75
2023/12/04 22:27:55;;;;;;;18.20;9.00;;;;;;;-0.33;100.00;100339.00;10458789;28;20033;-75
2023/12/04 22:32:56;;;;;;;22.13;10.27;;;;;;;-0.33;100.00;100341.69;10422473;28;20443;-75
2023/12/04 22:37:59;;;;;;;18.27;9.63;;;;;;;-0.33;100.00;100333.56;10435217;28;20057;-75
2023/12/04 22:43:00;;;;;;;19.20;10.37;;;;;;;-0.34;100.00;100342.72;10451400;28;20540;-75
2023/12/04 22:48:00;;;;;;;16.17;8.53;;;;;;;-0.32;100.00;100340.66;10450586;28;20044;-74